createdAt,value
2022-11-13T00:00:57.262Z,11.63
2022-11-13T00:03:24.204Z,11.63
2022-11-13T00:06:10.745Z,10.63
2022-11-13T00:08:37.266Z,13.48
2022-11-13T00:11:10.206Z,10.68
2022-11-13T00:13:36.993Z,9.63
2022-11-13T00:16:07.489Z,9.87
2022-11-13T00:18:35.589Z,9.88
2022-11-13T00:21:07.297Z,11.52
2022-11-13T00:23:35.383Z,10.02
2022-11-13T00:26:10.625Z,10.55
2022-11-13T00:28:37.136Z,11.87
2022-11-13T00:31:05.392Z,11.20
2022-11-13T00:34:01.804Z,10.57
2022-11-13T00:36:25.793Z,11.13
2022-11-13T00:38:54.045Z,10.05
2022-11-13T00:41:20.623Z,11.03
2022-11-13T00:43:47.099Z,11.40
2022-11-13T00:46:13.427Z,11.65
2022-11-13T00:48:39.975Z,11.73
2022-11-13T00:51:07.090Z,11.23
2022-11-13T00:53:33.613Z,10.43
2022-11-13T00:56:00.651Z,12.00
2022-11-13T00:58:27.761Z,13.05
2022-11-13T01:00:54.874Z,10.25
2022-11-13T01:03:21.324Z,12.15
2022-11-13T01:05:47.798Z,11.70
2022-11-13T01:08:15.698Z,10.75
2022-11-13T01:10:53.214Z,11.50
2022-11-13T01:13:20.020Z,10.93
2022-11-13T01:15:46.505Z,9.95
2022-11-13T01:18:13.119Z,12.20
2022-11-13T01:20:40.109Z,12.95
2022-11-13T01:23:06.458Z,11.95
2022-11-13T01:25:33.475Z,11.15
2022-11-13T01:27:59.808Z,11.38
2022-11-13T01:30:26.802Z,10.87
2022-11-13T01:32:53.217Z,12.32
2022-11-13T01:35:19.698Z,10.73
2022-11-13T01:37:46.218Z,9.50
2022-11-13T01:40:13.832Z,9.98
2022-11-13T01:42:40.439Z,9.63
2022-11-13T01:46:04.362Z,10.05
2022-11-13T01:48:43.788Z,9.85
2022-11-13T01:51:16.568Z,10.50
2022-11-13T01:53:46.198Z,10.15
2022-11-13T01:56:14.370Z,10.60
2022-11-13T01:58:43.902Z,9.20
2022-11-13T02:01:10.216Z,10.30
2022-11-13T02:03:36.865Z,8.57
2022-11-13T02:06:03.642Z,10.20
2022-11-13T02:08:30.641Z,10.97
2022-11-13T02:10:57.529Z,9.77
2022-11-13T02:13:25.598Z,9.93
2022-11-13T02:15:53.367Z,8.98
2022-11-13T02:18:22.326Z,10.93
2022-11-13T02:20:59.549Z,10.13
2022-11-13T02:23:42.058Z,9.65
2022-11-13T02:26:09.833Z,9.73
2022-11-13T02:28:36.606Z,8.85
2022-11-13T02:31:08.647Z,9.27
2022-11-13T02:33:35.358Z,9.53
2022-11-13T02:36:02.794Z,8.73
2022-11-13T02:38:30.315Z,8.35
2022-11-13T02:40:56.834Z,8.80
2022-11-13T02:43:23.316Z,10.00
2022-11-13T02:45:49.686Z,8.70
2022-11-13T02:48:16.063Z,8.43
2022-11-13T02:50:42.638Z,9.05
2022-11-13T02:53:09.140Z,8.82
2022-11-13T02:55:35.972Z,9.98
2022-11-13T02:58:02.937Z,8.87
2022-11-13T03:00:29.471Z,8.68
2022-11-13T03:02:56.122Z,9.82
2022-11-13T03:05:23.241Z,9.57
2022-11-13T03:07:49.758Z,10.85
2022-11-13T03:10:16.274Z,8.17
2022-11-13T03:12:42.752Z,9.38
2022-11-13T03:15:09.769Z,9.45
2022-11-13T03:17:37.577Z,8.40
2022-11-13T03:20:05.241Z,8.25
2022-11-13T03:22:32.037Z,9.20
2022-11-13T03:24:58.549Z,9.48
2022-11-13T03:27:24.869Z,9.57
2022-11-13T03:29:51.358Z,9.85
2022-11-13T03:32:18.667Z,9.50
2022-11-13T03:34:45.179Z,9.63
2022-11-13T03:37:11.479Z,8.35
2022-11-13T03:39:37.975Z,9.65
2022-11-13T03:42:04.317Z,9.25
2022-11-13T03:44:30.789Z,10.73
2022-11-13T03:46:57.108Z,8.10
2022-11-13T03:49:23.645Z,8.60
2022-11-13T03:51:50.130Z,10.98
2022-11-13T03:54:16.428Z,10.50
2022-11-13T03:56:42.960Z,9.75
2022-11-13T03:59:09.485Z,10.17
2022-11-13T04:01:36.016Z,9.73
2022-11-13T04:04:02.501Z,9.55
2022-11-13T04:06:28.993Z,9.10
2022-11-13T04:08:55.347Z,8.88
2022-11-13T04:11:21.896Z,8.33
2022-11-13T04:13:48.214Z,9.55
2022-11-13T04:16:14.833Z,9.43
2022-11-13T04:18:41.346Z,8.52
2022-11-13T04:21:07.913Z,8.35
2022-11-13T04:23:34.226Z,7.90
2022-11-13T04:26:00.771Z,7.53
2022-11-13T04:28:27.709Z,8.20
2022-11-13T04:30:54.943Z,8.00
2022-11-13T04:33:21.759Z,8.48
2022-11-13T04:35:48.532Z,9.53
2022-11-13T04:38:15.539Z,9.32
2022-11-13T04:40:42.779Z,8.10
2022-11-13T04:43:09.321Z,7.72
2022-11-13T04:45:36.589Z,8.73
2022-11-13T04:48:03.250Z,8.55
2022-11-13T04:50:30.404Z,8.30
2022-11-13T04:52:56.941Z,8.50
2022-11-13T04:55:23.374Z,9.25
2022-11-13T04:57:51.655Z,7.97
2022-11-13T05:00:18.625Z,9.53
2022-11-13T05:02:45.164Z,9.38
2022-11-13T05:05:11.681Z,9.63
2022-11-13T05:07:38.414Z,9.10
2022-11-13T05:10:05.964Z,9.70
2022-11-13T05:12:32.492Z,9.27
2022-11-13T05:14:59.060Z,9.05
2022-11-13T05:17:25.569Z,8.65
2022-11-13T05:19:52.104Z,11.48
2022-11-13T05:22:18.627Z,10.13
2022-11-13T05:24:45.109Z,8.03
2022-11-13T05:27:16.896Z,9.40
2022-11-13T05:29:44.016Z,10.32
2022-11-13T05:32:10.524Z,9.88
2022-11-13T05:34:37.064Z,8.40
2022-11-13T05:37:03.568Z,9.50
2022-11-13T05:39:30.052Z,10.68
2022-11-13T05:41:56.566Z,9.52
2022-11-13T05:44:23.109Z,9.98
2022-11-13T05:46:49.666Z,9.60
2022-11-13T05:49:16.202Z,9.87
2022-11-13T05:51:42.725Z,9.82
2022-11-13T05:54:09.247Z,10.15
2022-11-13T05:56:36.701Z,10.60
2022-11-13T05:59:04.898Z,9.38
2022-11-13T06:01:39.634Z,9.50
2022-11-13T06:04:07.498Z,9.68
2022-11-13T06:06:34.608Z,10.60
2022-11-13T06:09:03.942Z,9.20
2022-11-13T06:11:31.772Z,10.43
2022-11-13T06:13:59.947Z,9.50
2022-11-13T06:16:30.102Z,7.75
2022-11-13T06:19:01.562Z,9.18
2022-11-13T06:21:30.299Z,9.43
2022-11-13T06:23:57.779Z,7.93
2022-11-13T06:26:27.218Z,9.13
2022-11-13T06:28:53.922Z,8.60
2022-11-13T06:31:26.405Z,7.68
2022-11-13T06:33:53.347Z,7.00
2022-11-13T06:36:24.957Z,9.75
2022-11-13T06:38:51.758Z,9.73
2022-11-13T06:41:21.794Z,8.25
2022-11-13T06:43:48.718Z,6.75
2022-11-13T06:46:20.767Z,6.68
2022-11-13T06:48:47.855Z,8.57
2022-11-13T06:51:17.057Z,7.83
2022-11-13T06:53:43.899Z,8.07
2022-11-13T06:56:11.640Z,7.82
2022-11-13T06:58:38.424Z,9.60
2022-11-13T07:01:15.611Z,7.80
2022-11-13T07:03:42.958Z,8.03
2022-11-13T07:06:14.139Z,7.80
2022-11-13T07:08:44.537Z,7.63
2022-11-13T07:11:13.895Z,8.23
2022-11-13T07:13:41.039Z,8.23
2022-11-13T07:16:16.458Z,6.30
2022-11-13T07:18:44.020Z,7.68
2022-11-13T07:21:12.136Z,6.90
2022-11-13T07:23:43.488Z,7.90
2022-11-13T07:26:11.051Z,5.50
2022-11-13T07:28:37.698Z,6.93
2022-11-13T07:31:04.874Z,6.10
2022-11-13T07:33:31.361Z,6.63
2022-11-13T07:35:58.659Z,5.55
2022-11-13T07:38:25.303Z,6.60
2022-11-13T07:40:52.008Z,6.57
2022-11-13T07:43:18.373Z,7.68
2022-11-13T07:45:45.054Z,8.85
2022-11-13T07:48:11.619Z,8.80
2022-11-13T07:50:39.468Z,7.28
2022-11-13T07:53:08.185Z,6.87
2022-11-13T07:55:36.067Z,6.63
2022-11-13T07:58:04.264Z,6.30
2022-11-13T08:00:33.187Z,7.88
2022-11-13T08:03:09.625Z,6.30
2022-11-13T08:05:36.137Z,6.17
2022-11-13T08:08:03.413Z,6.10
2022-11-13T08:10:30.032Z,6.88
2022-11-13T08:13:02.494Z,6.45
2022-11-13T08:15:30.591Z,7.22
2022-11-13T08:17:58.464Z,6.97
2022-11-13T08:20:26.325Z,8.38
2022-11-13T08:22:56.138Z,8.13
2022-11-13T08:25:24.286Z,8.90
2022-11-13T08:27:52.925Z,8.40
2022-11-13T08:30:19.967Z,8.00
2022-11-13T08:32:47.879Z,7.80
2022-11-13T08:35:18.955Z,8.35
2022-11-13T08:37:46.215Z,7.85
2022-11-13T08:40:12.898Z,8.07
2022-11-13T08:42:39.478Z,8.53
2022-11-13T08:45:07.256Z,7.55
2022-11-13T08:47:33.699Z,6.85
2022-11-13T08:50:00.282Z,6.95
2022-11-13T08:52:26.706Z,6.60
2022-11-13T08:54:54.486Z,6.60
2022-11-13T08:57:20.870Z,5.47
2022-11-13T08:59:47.209Z,5.15
2022-11-13T09:02:15.180Z,5.97
2022-11-13T09:04:42.121Z,4.80
2022-11-13T09:07:08.620Z,5.47
2022-11-13T09:09:35.051Z,5.20
2022-11-13T09:12:01.556Z,5.30
2022-11-13T09:14:28.252Z,5.68
2022-11-13T09:16:54.847Z,6.05
2022-11-13T09:19:21.454Z,5.50
2022-11-13T09:21:47.947Z,5.35
2022-11-13T09:24:14.442Z,4.90
2022-11-13T09:26:40.922Z,5.82
2022-11-13T09:29:07.307Z,5.65
2022-11-13T09:31:33.746Z,5.53
2022-11-13T09:34:00.362Z,5.40
2022-11-13T09:36:27.016Z,6.03
2022-11-13T09:38:53.650Z,5.95
2022-11-13T09:41:22.625Z,5.65
2022-11-13T09:44:00.290Z,5.23
2022-11-13T09:46:42.553Z,6.25
2022-11-13T09:49:27.368Z,5.25
2022-11-13T09:52:03.907Z,5.82
2022-11-13T09:54:33.543Z,5.65
2022-11-13T09:57:29.713Z,5.43
2022-11-13T10:00:15.899Z,5.70
2022-11-13T10:03:03.959Z,5.70
2022-11-13T10:06:10.001Z,5.68
2022-11-13T10:08:53.161Z,5.55
2022-11-13T10:11:44.729Z,5.23
2022-11-13T10:14:42.921Z,5.10
2022-11-13T10:17:18.672Z,5.07
2022-11-13T10:19:54.398Z,5.03
2022-11-13T10:22:33.230Z,4.65
2022-11-13T10:25:11.956Z,4.70
2022-11-13T10:27:39.210Z,4.15
2022-11-13T10:30:13.829Z,4.50
2022-11-13T10:32:40.257Z,4.50
2022-11-13T10:35:06.736Z,4.40
2022-11-13T10:38:06.570Z,4.47
2022-11-13T10:40:40.609Z,4.57
2022-11-13T10:43:16.041Z,4.38
2022-11-13T10:45:53.055Z,4.50
2022-11-13T10:48:27.213Z,4.43
2022-11-13T10:50:56.774Z,4.27
2022-11-13T10:53:26.723Z,4.30
2022-11-13T10:56:00.592Z,4.55
2022-11-13T10:58:27.644Z,4.90
2022-11-13T11:00:54.392Z,4.50
2022-11-13T11:03:25.553Z,4.53
2022-11-13T11:05:54.510Z,4.60
2022-11-13T11:08:29.985Z,4.50
2022-11-13T11:11:31.274Z,4.63
2022-11-13T11:14:26.759Z,3.97
2022-11-13T11:16:54.089Z,4.87
2022-11-13T11:19:27.506Z,4.53
2022-11-13T11:22:05.413Z,4.07
2022-11-13T11:24:37.479Z,4.30
2022-11-13T11:27:18.157Z,3.90
2022-11-13T11:30:22.172Z,4.10
2022-11-13T11:33:14.709Z,4.20
2022-11-13T11:35:46.227Z,3.97
2022-11-13T11:38:21.213Z,3.45
2022-11-13T11:40:55.724Z,4.07
2022-11-13T11:43:33.028Z,4.43
2022-11-13T11:45:59.506Z,4.20
2022-11-13T11:48:30.970Z,3.83
2022-11-13T11:51:22.471Z,3.88
2022-11-13T11:54:03.233Z,3.30
2022-11-13T11:56:37.357Z,3.67
2022-11-13T11:59:31.337Z,3.67
2022-11-13T12:02:06.848Z,3.50
2022-11-13T12:04:39.391Z,3.85
2022-11-13T12:07:16.570Z,3.80
2022-11-13T12:10:24.412Z,3.87
2022-11-13T12:13:00.558Z,3.83
2022-11-13T12:15:27.025Z,3.15
2022-11-13T12:18:11.147Z,3.30
2022-11-13T12:21:15.627Z,3.60
2022-11-13T12:24:09.856Z,3.33
2022-11-13T12:26:39.739Z,3.20
2022-11-13T12:29:21.166Z,2.80
2022-11-13T12:32:06.669Z,2.55
2022-11-13T12:34:42.321Z,2.95
2022-11-13T12:37:16.372Z,3.33
2022-11-13T12:39:47.334Z,3.13
2022-11-13T12:42:35.912Z,2.40
2022-11-13T12:45:38.999Z,2.58
2022-11-13T12:48:14.486Z,2.80
2022-11-13T12:50:41.005Z,3.30
2022-11-13T12:53:10.636Z,2.70
2022-11-13T12:55:39.709Z,3.08
2022-11-13T12:58:11.099Z,2.78
2022-11-13T13:00:52.240Z,3.25
2022-11-13T13:03:38.581Z,3.27
2022-11-13T13:06:05.175Z,3.08
2022-11-13T13:08:44.133Z,2.80
2022-11-13T13:11:16.868Z,2.95
2022-11-13T13:14:04.229Z,2.95
2022-11-13T13:16:30.640Z,3.00
2022-11-13T13:19:24.615Z,3.25
2022-11-13T13:21:51.131Z,3.08
2022-11-13T13:24:35.070Z,3.30
2022-11-13T13:27:01.991Z,2.90
2022-11-13T13:29:30.018Z,2.70
2022-11-13T13:32:21.025Z,3.17
2022-11-13T13:34:53.734Z,3.03
2022-11-13T13:37:24.903Z,3.22
2022-11-13T13:40:19.189Z,3.03
2022-11-13T13:43:04.045Z,3.33
2022-11-13T13:45:49.255Z,2.67
2022-11-13T13:48:20.826Z,2.80
2022-11-13T13:50:49.549Z,3.45
2022-11-13T13:53:34.354Z,3.30
2022-11-13T13:56:03.587Z,3.73
2022-11-13T13:58:34.191Z,3.33
2022-11-13T14:01:18.366Z,3.53
2022-11-13T14:03:45.868Z,3.15
2022-11-13T14:06:23.424Z,3.42
2022-11-13T14:08:49.912Z,3.03
2022-11-13T14:11:29.410Z,3.53
2022-11-13T14:14:07.177Z,3.38
2022-11-13T14:16:33.475Z,3.40
2022-11-13T14:19:06.058Z,3.28
2022-11-13T14:21:32.940Z,3.53
2022-11-13T14:24:02.336Z,3.30
2022-11-13T14:26:29.645Z,3.92
2022-11-13T14:28:59.142Z,4.38
2022-11-13T14:31:35.627Z,3.50
2022-11-13T14:34:16.611Z,3.63
2022-11-13T14:36:43.753Z,3.47
2022-11-13T14:39:21.902Z,3.72
2022-11-13T14:41:55.754Z,3.65
2022-11-13T14:44:32.086Z,3.85
2022-11-13T14:47:04.905Z,3.90
2022-11-13T14:49:34.461Z,3.78
2022-11-13T14:52:02.165Z,3.95
2022-11-13T14:54:46.995Z,3.92
2022-11-13T14:57:16.708Z,3.90
2022-11-13T14:59:43.727Z,4.10
2022-11-13T15:02:13.042Z,4.63
2022-11-13T15:04:40.794Z,4.55
2022-11-13T15:07:28.574Z,4.22
2022-11-13T15:09:55.952Z,4.07
2022-11-13T15:12:22.438Z,4.63
2022-11-13T15:14:49.018Z,4.90
2022-11-13T15:17:21.163Z,4.57
2022-11-13T15:19:51.536Z,3.75
2022-11-13T15:22:27.111Z,4.32
2022-11-13T15:24:54.730Z,4.20
2022-11-13T15:27:21.447Z,4.35
2022-11-13T15:32:29.935Z,4.57
2022-11-13T15:34:56.363Z,4.95
2022-11-13T15:37:23.119Z,4.30
2022-11-13T15:39:49.436Z,4.32
2022-11-13T15:42:18.831Z,4.50
2022-11-13T15:44:45.927Z,4.97
2022-11-13T15:47:34.634Z,5.03
2022-11-13T15:50:13.455Z,5.30
2022-11-13T15:52:44.998Z,6.07
2022-11-13T15:55:32.564Z,6.10
2022-11-13T15:57:59.877Z,6.13
2022-11-13T16:00:28.282Z,5.72
2022-11-13T16:02:56.498Z,5.90
2022-11-13T16:05:28.919Z,5.53
2022-11-13T16:07:56.161Z,6.18
2022-11-13T16:10:25.433Z,6.93
2022-11-13T16:12:52.718Z,5.95
2022-11-13T16:15:19.743Z,5.90
2022-11-13T16:17:50.725Z,6.57
2022-11-13T16:20:17.937Z,7.85
2022-11-13T16:22:45.104Z,9.07
2022-11-13T16:25:14.928Z,9.65
2022-11-13T16:27:41.740Z,9.60
2022-11-13T16:30:17.686Z,8.07
2022-11-13T16:32:44.037Z,8.13
2022-11-13T16:35:15.764Z,6.97
2022-11-13T16:37:42.634Z,6.20
2022-11-13T16:40:30.720Z,6.30
2022-11-13T16:42:57.846Z,6.45
2022-11-13T16:45:24.341Z,6.93
2022-11-13T16:47:51.000Z,6.43
2022-11-13T16:50:24.604Z,6.47
2022-11-13T16:52:51.499Z,7.97
2022-11-13T16:55:18.049Z,7.47
2022-11-13T16:57:44.684Z,7.55
2022-11-13T17:00:15.128Z,7.45
2022-11-13T17:02:41.982Z,6.95
2022-11-13T17:05:16.069Z,7.10
2022-11-13T17:07:42.524Z,7.22
2022-11-13T17:10:30.922Z,7.75
2022-11-13T17:12:58.086Z,7.55
2022-11-13T17:15:24.467Z,8.48
2022-11-13T17:17:50.780Z,8.67
2022-11-13T17:20:19.314Z,7.85
2022-11-13T17:22:48.604Z,8.23
2022-11-13T17:25:18.505Z,8.07
2022-11-13T17:27:45.044Z,8.73
2022-11-13T17:30:12.739Z,8.13
2022-11-13T17:32:39.327Z,8.63
2022-11-13T17:35:06.401Z,9.20
2022-11-13T17:37:32.808Z,9.00
2022-11-13T17:39:59.149Z,8.65
2022-11-13T17:42:27.989Z,8.90
2022-11-13T17:44:54.537Z,9.90
2022-11-13T17:47:21.131Z,8.93
2022-11-13T17:49:47.493Z,8.60
2022-11-13T17:52:13.970Z,8.60
2022-11-13T17:54:40.297Z,9.20
2022-11-13T17:57:10.312Z,10.30
2022-11-13T17:59:36.886Z,9.48
2022-11-13T18:02:03.536Z,7.70
2022-11-13T18:04:30.108Z,9.18
2022-11-13T18:06:56.558Z,9.23
2022-11-13T18:09:23.132Z,8.25
2022-11-13T18:11:49.681Z,8.05
2022-11-13T18:14:16.195Z,8.02
2022-11-13T18:16:42.731Z,8.52
2022-11-13T18:19:09.428Z,8.93
2022-11-13T18:21:36.743Z,8.27
2022-11-13T18:24:16.285Z,8.82
2022-11-13T18:26:43.953Z,9.45
2022-11-13T18:29:11.049Z,8.65
2022-11-13T18:31:37.553Z,10.20
2022-11-13T18:34:05.864Z,9.85
2022-11-13T18:36:34.685Z,10.35
2022-11-13T18:39:03.240Z,9.50
2022-11-13T18:41:30.518Z,9.73
2022-11-13T18:43:57.031Z,10.30
2022-11-13T18:46:23.571Z,11.32
2022-11-13T18:48:50.065Z,11.77
2022-11-13T18:51:20.891Z,10.07
2022-11-13T18:53:49.317Z,10.18
2022-11-13T18:56:19.167Z,9.90
2022-11-13T18:58:47.457Z,10.02
2022-11-13T19:01:21.919Z,9.77
2022-11-13T19:04:08.654Z,8.98
2022-11-13T19:06:38.207Z,9.52
2022-11-13T19:09:07.902Z,9.63
2022-11-13T19:11:34.441Z,9.75
2022-11-13T19:14:00.980Z,9.02
2022-11-13T19:16:31.322Z,10.07
2022-11-13T19:19:00.051Z,9.93
2022-11-13T19:21:29.301Z,9.87
2022-11-13T19:23:56.858Z,9.32
2022-11-13T19:26:23.419Z,9.13
2022-11-13T19:28:51.664Z,9.95
2022-11-13T19:31:22.762Z,10.07
2022-11-13T19:34:00.157Z,9.73
2022-11-13T19:36:28.601Z,9.95
2022-11-13T19:38:56.234Z,9.48
2022-11-13T19:41:23.820Z,10.10
2022-11-13T19:43:50.246Z,10.45
2022-11-13T19:46:18.520Z,10.17
2022-11-13T19:48:48.780Z,10.15
2022-11-13T19:51:26.788Z,10.23
2022-11-13T19:53:57.843Z,10.90
2022-11-13T19:56:25.953Z,10.40
2022-11-13T19:58:52.928Z,11.00
2022-11-13T20:01:29.157Z,11.07
2022-11-13T20:03:57.623Z,12.18
2022-11-13T20:06:25.975Z,11.45
2022-11-13T20:08:52.760Z,12.15
2022-11-13T20:11:19.315Z,12.07
2022-11-13T20:13:46.397Z,12.45
2022-11-13T20:16:14.463Z,11.50
2022-11-13T20:18:42.134Z,11.00
2022-11-13T20:21:08.602Z,11.23
2022-11-13T20:23:35.461Z,11.47
2022-11-13T20:26:05.324Z,10.38
2022-11-13T20:28:32.527Z,11.60
2022-11-13T20:31:04.289Z,11.00
2022-11-13T20:33:33.161Z,11.50
2022-11-13T20:35:59.678Z,10.63
2022-11-13T20:38:26.204Z,10.38
2022-11-13T20:40:52.950Z,10.25
2022-11-13T20:43:19.470Z,10.70
2022-11-13T20:45:46.150Z,10.95
2022-11-13T20:48:12.703Z,10.50
2022-11-13T20:50:39.644Z,10.63
2022-11-13T20:53:06.460Z,10.40
2022-11-13T20:55:33.014Z,12.02
2022-11-13T20:57:59.506Z,11.60
2022-11-13T21:00:26.070Z,11.47
2022-11-13T21:02:52.622Z,11.25
2022-11-13T21:05:19.088Z,11.20
2022-11-13T21:07:45.575Z,11.27
2022-11-13T21:10:12.084Z,10.82
2022-11-13T21:12:38.587Z,11.07
2022-11-13T21:15:05.666Z,11.88
2022-11-13T21:17:32.162Z,10.95
2022-11-13T21:19:58.496Z,11.02
2022-11-13T21:22:25.039Z,10.25
2022-11-13T21:24:51.535Z,10.00
2022-11-13T21:27:17.873Z,10.63
2022-11-13T21:29:44.235Z,10.45
2022-11-13T21:32:10.556Z,10.07
2022-11-13T21:34:36.911Z,9.85
2022-11-13T21:37:03.238Z,9.97
2022-11-13T21:39:30.856Z,9.98
2022-11-13T21:41:57.386Z,9.65
2022-11-13T21:44:23.932Z,9.60
2022-11-13T21:46:50.486Z,9.60
2022-11-13T21:49:16.954Z,9.63
2022-11-13T21:51:43.771Z,10.25
2022-11-13T21:54:10.959Z,10.10
2022-11-13T21:56:38.811Z,9.48
2022-11-13T21:59:06.443Z,9.68
2022-11-13T22:01:38.147Z,9.70
2022-11-13T22:04:06.039Z,9.85
2022-11-13T22:06:36.289Z,8.88
2022-11-13T22:09:04.636Z,9.13
2022-11-13T22:11:34.244Z,10.30
2022-11-13T22:14:01.083Z,9.10
2022-11-13T22:16:29.313Z,8.43
2022-11-13T22:18:57.437Z,10.20
2022-11-13T22:21:25.709Z,11.27
2022-11-13T22:23:52.710Z,10.68
2022-11-13T22:26:20.341Z,10.03
2022-11-13T22:28:47.895Z,10.98
2022-11-13T22:31:19.708Z,11.18
2022-11-13T22:33:49.605Z,12.88
2022-11-13T22:36:20.952Z,12.88
2022-11-13T22:38:47.898Z,14.90
2022-11-13T22:41:24.098Z,11.02
2022-11-13T22:43:52.904Z,9.95
2022-11-13T22:46:22.446Z,9.60
2022-11-13T22:48:50.381Z,9.25
2022-11-13T22:51:19.343Z,9.60
2022-11-13T22:53:51.226Z,10.13
2022-11-13T22:56:18.680Z,10.10
2022-11-13T22:58:45.758Z,9.98
2022-11-13T23:01:20.643Z,9.80
2022-11-13T23:03:48.894Z,10.43
2022-11-13T23:06:25.737Z,12.02
2022-11-13T23:08:52.889Z,12.23
2022-11-13T23:11:33.300Z,12.95
2022-11-13T23:14:02.572Z,13.35
2022-11-13T23:16:30.502Z,14.80
2022-11-13T23:18:59.090Z,14.48
2022-11-13T23:21:26.910Z,14.75
2022-11-13T23:23:54.492Z,15.75
2022-11-13T23:26:21.931Z,16.60
2022-11-13T23:28:48.450Z,15.20
2022-11-13T23:31:15.030Z,16.42
2022-11-13T23:33:41.987Z,14.65
2022-11-13T23:36:11.318Z,16.15
2022-11-13T23:38:38.102Z,14.98
2022-11-13T23:41:05.079Z,15.77
2022-11-13T23:46:18.241Z,15.07
2022-11-13T23:48:44.713Z,16.65
2022-11-13T23:51:11.042Z,16.58
2022-11-13T23:53:37.579Z,19.07
2022-11-13T23:56:04.609Z,14.70
2022-11-13T23:58:32.459Z,15.25
